Time;durP1;ratioP1;P1;durP2;ratioP2;P2;SDS_P1;SDS_P2;PMS_P1;PMS_P2;Temp;Humidity;BMP_temperature;BMP_pressure;BME280_temperature;BME280_humidity;BME280_pressure;Samples;Min_cycle;Max_cycle;Signal;HPM_P1;HPM_P2
2024/03/20 00:00:24;;;;;;;;;;;9.20;98.00;;;;;;5019187;28;20091;-70
2024/03/20 00:02:50;;;;;;;15.40;9.27;;;9.20;98.00;;;;;;5014916;28;19909;-70
2024/03/20 00:05:18;;;;;;;;;;;9.20;98.10;;;;;;5017835;28;20026;-70
2024/03/20 00:07:44;;;;;;;16.52;8.93;;;9.10;98.20;;;;;;5016362;28;19909;-70
2024/03/20 00:10:12;;;;;;;;;;;9.10;98.30;;;;;;5018741;28;20036;-70
2024/03/20 00:12:41;;;;;;;15.25;8.20;;;9.10;98.40;;;;;;5020465;28;19964;-70
2024/03/20 00:15:06;;;;;;;14.98;9.80;;;9.10;98.40;;;;;;5014351;28;20125;-70
2024/03/20 00:17:33;;;;;;;;;;;9.00;98.40;;;;;;5024834;28;20116;-70
2024/03/20 00:20:00;;;;;;;17.15;8.93;;;9.00;98.30;;;;;;5023440;28;19958;-70
2024/03/20 00:22:26;;;;;;;18.30;9.80;;;8.90;98.40;;;;;;5017072;28;20048;-70
2024/03/20 00:24:51;;;;;;;;;;;8.80;98.60;;;;;;5014040;28;20026;-70
2024/03/20 00:27:17;;;;;;;15.70;7.72;;;8.80;98.60;;;;;;5021551;28;19920;-70
2024/03/20 00:29:42;;;;;;;;;;;8.70;98.90;;;;;;5016958;28;20434;-70
2024/03/20 00:32:08;;;;;;;16.42;10.05;;;8.70;98.90;;;;;;5015742;28;19909;-70
2024/03/20 00:34:33;;;;;;;;;;;8.60;98.80;;;;;;5014783;28;20499;-70
2024/03/20 00:36:59;;;;;;;15.15;9.10;;;8.60;98.80;;;;;;5017059;28;20345;-76
2024/03/20 00:39:24;;;;;;;;;;;8.50;99.00;;;;;;5017096;28;20539;-76
2024/03/20 00:41:50;;;;;;;17.48;9.27;;;8.50;99.20;;;;;;5022506;28;19909;-76
2024/03/20 00:44:16;;;;;;;14.02;9.85;;;8.60;99.50;;;;;;5017176;28;20421;-76
2024/03/20 00:46:41;;;;;;;;;;;8.50;99.40;;;;;;5017105;28;20018;-76
2024/03/20 00:49:07;;;;;;;11.93;7.35;;;8.50;99.40;;;;;;5014959;28;19993;-76
2024/03/20 00:51:32;;;;;;;;;;;8.50;99.40;;;;;;5014258;28;20022;-76
2024/03/20 00:53:58;;;;;;;13.32;8.68;;;8.40;99.30;;;;;;5018509;28;20383;-76
2024/03/20 00:56:24;;;;;;;;;;;8.40;99.20;;;;;;5019443;28;20030;-76
2024/03/20 00:58:49;;;;;;;12.95;8.73;;;8.40;99.50;;;;;;5018912;28;19909;-76
2024/03/20 01:01:15;;;;;;;;;;;8.50;99.70;;;;;;5013630;28;20030;-76
2024/03/20 01:03:41;;;;;;;13.05;7.55;;;8.50;99.60;;;;;;5013748;28;20208;-76
2024/03/20 01:06:06;;;;;;;;;;;8.60;99.60;;;;;;5019734;28;20403;-76
2024/03/20 01:08:32;;;;;;;13.60;8.57;;;8.70;99.50;;;;;;5017639;28;19910;-76
2024/03/20 01:10:57;;;;;;;;;;;8.70;99.30;;;;;;5014822;28;20026;-76
2024/03/20 01:13:23;;;;;;;12.27;8.13;;;8.70;99.30;;;;;;5016939;28;19920;-76
2024/03/20 01:15:48;;;;;;;;;;;8.70;99.20;;;;;;5015119;28;20048;-76
2024/03/20 01:18:16;;;;;;;16.95;8.45;;;8.70;99.20;;;;;;5018259;28;19949;-76
2024/03/20 01:20:42;;;;;;;12.73;8.02;;;8.70;99.10;;;;;;5018852;28;20030;-76
2024/03/20 01:23:07;;;;;;;;;;;8.70;99.10;;;;;;5023200;28;20026;-77
2024/03/20 01:25:33;;;;;;;11.88;8.25;;;8.80;99.20;;;;;;5016232;28;20363;-76
2024/03/20 01:27:58;;;;;;;;;;;8.80;99.20;;;;;;5016044;28;20029;-76
2024/03/20 01:30:24;;;;;;;14.55;9.35;;;8.80;99.20;;;;;;5015849;28;19916;-76
2024/03/20 01:32:49;;;;;;;;;;;8.80;99.20;;;;;;5013088;28;20025;-76
2024/03/20 01:35:15;;;;;;;15.05;8.27;;;8.80;99.10;;;;;;5015836;28;19928;-75
2024/03/20 01:37:40;;;;;;;;;;;8.80;99.10;;;;;;5013150;28;20571;-76
2024/03/20 01:40:06;;;;;;;16.60;8.35;;;8.80;99.10;;;;;;5016229;28;19964;-76
2024/03/20 01:42:33;;;;;;;14.73;8.60;;;8.80;99.20;;;;;;5012242;28;20038;-76
2024/03/20 01:45:15;;;;;;;14.75;8.73;;;8.80;99.10;;;;;;5012396;28;20034;-76
2024/03/20 01:47:42;;;;;;;16.90;10.10;;;8.80;99.10;;;;;;5020964;28;20036;-76
2024/03/20 01:50:09;;;;;;;16.42;9.63;;;8.80;99.20;;;;;;5011086;28;20025;-76
2024/03/20 01:52:46;;;;;;;13.77;9.77;;;8.80;99.10;;;;;;5015089;28;20389;-76
2024/03/20 01:55:12;;;;;;;18.38;10.43;;;8.80;99.10;;;;;;5022450;28;20378;-76
2024/03/20 01:57:37;;;;;;;;;;;8.80;99.20;;;;;;5018676;28;20048;-76
2024/03/20 02:00:03;;;;;;;11.57;8.00;;;8.70;99.10;;;;;;5019821;28;19945;-76
2024/03/20 02:02:29;;;;;;;;;;;8.70;99.10;;;;;;5023671;28;20025;-76
2024/03/20 02:04:54;;;;;;;19.70;9.57;;;8.70;99.20;;;;;;5025515;28;19912;-76
2024/03/20 02:07:20;;;;;;;;;;;8.80;99.20;;;;;;5019391;28;20076;-76
2024/03/20 02:09:45;;;;;;;11.70;8.70;;;8.70;99.10;;;;;;5024270;28;19913;-76
2024/03/20 02:12:11;;;;;;;;;;;8.70;99.20;;;;;;5015744;28;20032;-76
2024/03/20 02:14:39;;;;;;;17.35;9.95;;;8.70;99.30;;;;;;5014922;28;19952;-76
2024/03/20 02:17:05;;;;;;;19.90;10.43;;;8.70;99.50;;;;;;5017953;28;20033;-76
2024/03/20 02:19:31;;;;;;;;;;;8.80;99.70;;;;;;5020685;28;20390;-76
2024/03/20 02:21:56;;;;;;;13.88;9.43;;;8.80;99.60;;;;;;5014748;28;19921;-76
2024/03/20 02:24:21;;;;;;;;;;;8.80;99.60;;;;;;5020724;28;20057;-76
2024/03/20 02:26:47;;;;;;;19.42;9.90;;;8.80;99.60;;;;;;5025769;28;19931;-76
2024/03/20 02:29:12;;;;;;;;;;;8.80;99.90;;;;;;5021186;28;20248;-76
2024/03/20 02:31:38;;;;;;;29.25;17.15;;;8.80;99.80;;;;;;5014715;28;19948;-76
2024/03/20 02:34:03;;;;;;;;;;;8.80;99.70;;;;;;5024170;28;20560;-76
2024/03/20 02:36:29;;;;;;;19.55;11.63;;;8.80;99.70;;;;;;5022015;28;19916;-76
2024/03/20 02:38:54;;;;;;;;;;;8.70;99.60;;;;;;5022806;28;20021;-76
2024/03/20 02:41:20;;;;;;;21.10;12.80;;;8.60;99.70;;;;;;5011025;28;20004;-76
2024/03/20 02:43:45;;;;;;;;;;;8.60;99.90;;;;;;5018339;28;20021;-77
2024/03/20 02:46:11;;;;;;;17.58;10.77;;;8.50;99.90;;;;;;5015283;28;20335;-76
2024/03/20 02:48:36;;;;;;;;;;;8.50;99.90;;;;;;5014254;28;20381;-76
2024/03/20 02:51:03;;;;;;;18.58;11.10;;;8.60;99.90;;;;;;5016212;28;19951;-76
2024/03/20 02:53:29;;;;;;;16.20;10.20;;;8.60;99.90;;;;;;5024794;28;20041;-76
2024/03/20 02:55:54;;;;;;;;;;;8.60;99.90;;;;;;5020670;28;20567;-76
2024/03/20 02:58:19;;;;;;;19.13;11.65;;;8.60;99.90;;;;;;5013899;28;19916;-76
2024/03/20 03:00:45;;;;;;;;;;;8.50;99.90;;;;;;5022724;28;20118;-76
2024/03/20 03:03:10;;;;;;;14.98;9.82;;;8.50;99.90;;;;;;5020686;28;19957;-76
2024/03/20 03:05:36;;;;;;;;;;;8.40;99.90;;;;;;5021757;28;20469;-76
2024/03/20 03:08:03;;;;;;;16.73;9.88;;;8.40;99.90;;;;;;5012742;28;19929;-76
2024/03/20 03:10:28;;;;;;;19.90;11.15;;;8.40;99.90;;;;;;5022171;28;20102;-76
2024/03/20 03:12:54;;;;;;;;;;;8.40;99.90;;;;;;5018434;28;20026;-76
2024/03/20 03:15:20;;;;;;;17.67;9.65;;;8.40;99.90;;;;;;5018373;28;19957;-76
2024/03/20 03:17:46;;;;;;;;;;;8.40;99.90;;;;;;5012019;28;20026;-76
2024/03/20 03:20:15;;;;;;;19.33;10.60;;;8.40;99.90;;;;;;5017863;28;19913;-76
2024/03/20 03:22:44;;;;;;;16.90;10.32;;;8.40;99.90;;;;;;5013832;28;20026;-76
2024/03/20 03:25:11;;;;;;;19.15;12.48;;;8.30;99.90;;;;;;5022047;28;20488;-76
2024/03/20 03:27:37;;;;;;;20.23;9.70;;;8.30;99.90;;;;;;5019978;28;20033;-76
2024/03/20 03:30:05;;;;;;;19.98;10.40;;;8.30;99.90;;;;;;5020459;28;20069;-76
2024/03/20 03:32:31;;;;;;;17.88;11.75;;;8.40;99.90;;;;;;5020041;28;20065;-76
2024/03/20 03:34:56;;;;;;;;;;;8.40;99.90;;;;;;5018619;28;20079;-76
2024/03/20 03:37:23;;;;;;;22.75;11.93;;;8.30;99.90;;;;;;5017435;28;19909;-76
2024/03/20 03:39:49;;;;;;;22.52;13.02;;;8.30;99.90;;;;;;5014268;28;20030;-76
2024/03/20 03:42:15;;;;;;;18.17;12.75;;;8.20;99.90;;;;;;5018719;28;20026;-76
2024/03/20 03:44:41;;;;;;;;;;;8.10;99.90;;;;;;5013880;28;20025;-76
2024/03/20 03:47:07;;;;;;;16.67;9.88;;;8.10;99.90;;;;;;5020605;28;20058;-76
2024/03/20 03:49:32;;;;;;;;;;;8.00;99.90;;;;;;5013783;28;20128;-76
2024/03/20 03:51:58;;;;;;;19.15;10.75;;;7.90;99.90;;;;;;5013806;28;19916;-76
2024/03/20 03:54:23;;;;;;;;;;;7.90;99.90;;;;;;5011039;28;20033;-76
2024/03/20 03:56:49;;;;;;;15.90;9.57;;;7.80;99.90;;;;;;5011222;28;19913;-76
2024/03/20 03:59:14;;;;;;;;;;;7.70;99.90;;;;;;5019704;28;20029;-76
2024/03/20 04:01:40;;;;;;;18.02;10.65;;;7.70;99.90;;;;;;5016313;28;20020;-76
2024/03/20 04:04:05;;;;;;;;;;;7.60;99.90;;;;;;5013771;28;20022;-76
2024/03/20 04:06:31;;;;;;;16.67;10.07;;;7.60;99.90;;;;;;5015289;28;19918;-76
2024/03/20 04:08:56;;;;;;;;;;;7.60;99.90;;;;;;5023722;28;20030;-76
2024/03/20 04:11:23;;;;;;;19.70;11.00;;;7.60;99.90;;;;;;5017877;28;19956;-76
2024/03/20 04:13:49;;;;;;;15.95;10.88;;;7.60;99.90;;;;;;5012200;28;20065;-76
2024/03/20 04:16:15;;;;;;;;;;;7.60;99.90;;;;;;5013671;28;20549;-76
2024/03/20 04:18:40;;;;;;;19.10;10.93;;;7.60;99.90;;;;;;5013597;28;19909;-76
2024/03/20 04:21:06;;;;;;;;;;;7.60;99.90;;;;;;5020136;28;20343;-71
2024/03/20 04:23:32;;;;;;;18.10;10.73;;;7.60;99.90;;;;;;5013841;28;19910;-71
2024/03/20 04:25:57;;;;;;;;;;;7.60;99.90;;;;;;5018137;28;20380;-76
2024/03/20 04:28:22;;;;;;;22.98;12.77;;;7.50;99.90;;;;;;5020261;28;19913;-76
2024/03/20 04:30:48;;;;;;;;;;;7.50;99.90;;;;;;5015318;28;20033;-76
2024/03/20 04:33:13;;;;;;;19.23;12.30;;;7.40;99.90;;;;;;5017116;28;19905;-77
2024/03/20 04:35:39;;;;;;;;;;;7.40;99.90;;;;;;5016110;28;20055;-76
2024/03/20 04:38:04;;;;;;;24.70;12.10;;;7.40;99.90;;;;;;5021983;28;19951;-76
2024/03/20 04:40:30;;;;;;;;;;;7.30;99.90;;;;;;5014142;28;20125;-76
2024/03/20 04:42:55;;;;;;;28.38;16.60;;;7.30;99.90;;;;;;5015303;28;20283;-76
2024/03/20 04:45:21;;;;;;;;;;;7.30;99.90;;;;;;5014579;28;20068;-76
2024/03/20 04:47:46;;;;;;;32.38;18.00;;;7.20;99.90;;;;;;5017926;28;19909;-76
2024/03/20 04:50:12;;;;;;;;;;;7.30;99.90;;;;;;5018584;28;20033;-76
2024/03/20 04:52:38;;;;;;;19.98;12.32;;;7.20;99.90;;;;;;5013126;28;19905;-76
2024/03/20 04:55:05;;;;;;;35.65;20.27;;;7.20;99.90;;;;;;5015892;28;20404;-76
2024/03/20 04:57:31;;;;;;;22.48;13.75;;;7.20;99.90;;;;;;5012919;28;20149;-76
2024/03/20 04:59:56;;;;;;;;;;;7.20;99.90;;;;;;5019841;28;20564;-76
2024/03/20 05:02:22;;;;;;;20.40;12.98;;;7.10;99.90;;;;;;5015373;28;19923;-76
2024/03/20 05:04:47;;;;;;;;;;;7.10;99.90;;;;;;5018387;28;20026;-76
2024/03/20 05:07:13;;;;;;;24.23;14.50;;;7.20;99.90;;;;;;5015926;28;19955;-76
2024/03/20 05:09:39;;;;;;;;;;;7.20;99.90;;;;;;5011498;28;20045;-75
2024/03/20 05:12:05;;;;;;;20.00;10.93;;;7.20;99.90;;;;;;5016132;28;19944;-75
2024/03/20 05:14:30;;;;;;;;;;;7.20;99.90;;;;;;5018546;28;20063;-76
2024/03/20 05:16:59;;;;;;;19.20;12.25;;;7.20;99.90;;;;;;5011457;28;19913;-74
2024/03/20 05:19:28;;;;;;;20.38;13.43;;;7.10;99.90;;;;;;5016282;28;20037;-75
2024/03/20 05:21:54;;;;;;;19.08;11.60;;;7.10;99.90;;;;;;5008400;28;20049;-75
2024/03/20 05:24:19;;;;;;;;;;;7.10;99.90;;;;;;5020689;28;20029;-73
2024/03/20 05:26:45;;;;;;;19.65;11.18;;;7.20;99.90;;;;;;5012532;28;19917;-74
2024/03/20 05:29:11;;;;;;;;;;;7.30;99.90;;;;;;5018344;28;20026;-75
2024/03/20 05:31:37;;;;;;;19.75;11.13;;;7.40;99.90;;;;;;5016586;28;19920;-74
2024/03/20 05:34:02;;;;;;;;;;;7.40;99.90;;;;;;5017959;28;20136;-74
2024/03/20 05:36:28;;;;;;;18.25;10.70;;;7.50;99.90;;;;;;5022375;28;19933;-74
2024/03/20 05:38:53;;;;;;;;;;;7.50;99.90;;;;;;5019284;28;20026;-76
2024/03/20 05:41:19;;;;;;;21.70;10.60;;;7.50;99.90;;;;;;5018575;28;19932;-77
2024/03/20 05:43:46;;;;;;;;;;;7.60;99.90;;;;;;5017274;28;20014;-74
2024/03/20 05:46:13;;;;;;;19.92;11.02;;;7.60;99.90;;;;;;5016703;28;19996;-74
2024/03/20 05:48:38;;;;;;;26.08;13.32;;;7.50;99.90;;;;;;5017912;28;20121;-74
2024/03/20 05:51:04;;;;;;;;;;;7.60;99.90;;;;;;5013330;28;20108;-75
2024/03/20 05:53:30;;;;;;;23.30;12.63;;;7.60;99.90;;;;;;5019062;28;19909;-74
2024/03/20 05:55:55;;;;;;;;;;;7.60;99.90;;;;;;5019956;28;20057;-75
2024/03/20 05:58:21;;;;;;;21.00;12.27;;;7.60;99.90;;;;;;5022333;28;20380;-76
2024/03/20 06:00:46;;;;;;;;;;;7.70;99.90;;;;;;5018219;28;20040;-76
2024/03/20 06:03:12;;;;;;;19.13;11.07;;;7.70;99.90;;;;;;5017635;28;19909;-76
2024/03/20 06:05:37;;;;;;;;;;;7.80;99.90;;;;;;5024447;28;20042;-76
2024/03/20 06:08:03;;;;;;;16.85;9.93;;;7.90;99.90;;;;;;5018796;28;19909;-75
2024/03/20 06:10:28;;;;;;;;;;;8.00;99.90;;;;;;5020947;28;20049;-75
2024/03/20 06:12:55;;;;;;;22.38;11.70;;;8.00;99.90;;;;;;5018378;28;20362;-75
2024/03/20 06:15:20;;;;;;;;;;;8.10;99.90;;;;;;5018874;28;20175;-75
2024/03/20 06:17:46;;;;;;;18.58;11.75;;;8.20;99.90;;;;;;5022631;28;20029;-75
2024/03/20 06:20:13;;;;;;;;;;;8.30;99.90;;;;;;5022413;28;20492;-75
2024/03/20 06:22:38;;;;;;;15.77;10.83;;;8.40;99.90;;;;;;5023116;28;19927;-76
2024/03/20 06:25:06;;;;;;;;;;;8.50;99.90;;;;;;5019508;28;20030;-76
2024/03/20 06:27:35;;;;;;;19.42;11.18;;;8.60;99.90;;;;;;5017355;28;19963;-75
2024/03/20 06:30:04;;;;;;;15.95;9.75;;;8.70;99.90;;;;;;5019132;28;20030;-75
2024/03/20 06:32:32;;;;;;;22.55;11.82;;;8.70;99.90;;;;;;5018158;28;20416;-75
2024/03/20 06:34:57;;;;;;;16.40;10.55;;;8.80;99.90;;;;;;5018442;28;20053;-75
2024/03/20 06:37:23;;;;;;;;;;;8.90;99.90;;;;;;5017380;28;20021;-74
2024/03/20 06:39:48;;;;;;;19.83;11.13;;;9.00;99.90;;;;;;5014705;28;19909;-75
2024/03/20 06:42:20;;;;;;;;;;;9.10;99.90;;;;;;5025781;28;20017;-75
2024/03/20 06:44:49;;;;;;;22.08;11.13;;;9.20;99.90;;;;;;5023636;28;19913;-74
2024/03/20 06:47:18;;;;;;;17.63;10.70;;;9.30;99.90;;;;;;5019326;28;20484;-75
2024/03/20 06:49:44;;;;;;;18.55;11.57;;;9.40;99.90;;;;;;5016913;28;20026;-73
2024/03/20 06:52:12;;;;;;;23.65;12.32;;;9.40;99.90;;;;;;5021020;28;20036;-76
2024/03/20 06:54:42;;;;;;;20.77;11.50;;;9.40;99.90;;;;;;5013764;28;20026;-74
2024/03/20 06:57:10;;;;;;;18.42;12.02;;;9.50;99.90;;;;;;5017942;28;20025;-73
2024/03/20 06:59:42;;;;;;;22.08;11.32;;;9.60;99.90;;;;;;5022283;28;20108;-73
2024/03/20 07:02:08;;;;;;;19.33;10.93;;;9.50;99.90;;;;;;5021610;28;20466;-75
2024/03/20 07:04:34;;;;;;;;;;;9.60;99.90;;;;;;5015601;28;20033;-75
2024/03/20 07:07:03;;;;;;;21.98;12.82;;;9.60;99.90;;;;;;5020042;28;19962;-76
2024/03/20 07:09:31;;;;;;;20.42;11.40;;;9.70;99.90;;;;;;5017392;28;20079;-75
2024/03/20 07:11:58;;;;;;;19.92;11.98;;;9.70;99.90;;;;;;5019583;28;20495;-75
2024/03/20 07:14:26;;;;;;;18.00;10.88;;;9.70;99.90;;;;;;5017295;28;20140;-75
2024/03/20 07:16:52;;;;;;;17.88;11.98;;;9.80;99.90;;;;;;5014975;28;20481;-75
2024/03/20 07:19:17;;;;;;;;;;;9.80;99.90;;;;;;5012753;28;20144;-75
2024/03/20 07:21:43;;;;;;;18.17;11.07;;;9.90;99.90;;;;;;5019496;28;19916;-75
2024/03/20 07:24:08;;;;;;;;;;;10.00;99.90;;;;;;5011826;28;20050;-75
2024/03/20 07:26:39;;;;;;;20.10;10.70;;;10.10;99.90;;;;;;5014885;28;20245;-75
2024/03/20 07:29:10;;;;;;;21.30;11.68;;;10.20;99.90;;;;;;5011316;28;20477;-76
2024/03/20 07:31:40;;;;;;;17.05;10.50;;;10.20;99.90;;;;;;5013817;28;20080;-74
2024/03/20 07:34:06;;;;;;;16.20;11.32;;;10.30;99.90;;;;;;5016141;28;20029;-75
2024/03/20 07:36:36;;;;;;;18.27;11.10;;;10.50;99.90;;;;;;5015012;28;20025;-75
2024/03/20 07:39:03;;;;;;;22.75;11.32;;;10.60;99.90;;;;;;5014077;28;20028;-76
2024/03/20 07:41:29;;;;;;;20.38;10.85;;;10.70;99.90;;;;;;5014216;28;20078;-76
2024/03/20 07:43:55;;;;;;;19.95;12.20;;;10.80;99.90;;;;;;5019046;28;20092;-75
2024/03/20 07:46:21;;;;;;;;;;;11.00;99.90;;;;;;5017314;28;20112;-76
2024/03/20 07:48:48;;;;;;;19.30;11.35;;;11.10;99.90;;;;;;5019561;28;20743;-75
2024/03/20 07:51:14;;;;;;;22.23;11.38;;;11.30;99.90;;;;;;5012151;28;20026;-76
2024/03/20 07:53:44;;;;;;;18.73;12.75;;;11.40;99.90;;;;;;5017580;28;20243;-76
2024/03/20 07:56:10;;;;;;;23.73;12.50;;;11.50;99.90;;;;;;5018874;28;20076;-76
2024/03/20 07:58:36;;;;;;;;;;;11.60;99.90;;;;;;5012375;28;20109;-76
2024/03/20 08:01:02;;;;;;;19.02;12.27;;;11.70;99.90;;;;;;5015785;28;19913;-76
2024/03/20 08:03:28;;;;;;;18.88;11.52;;;11.80;99.90;;;;;;5015319;28;20044;-76
2024/03/20 08:05:54;;;;;;;;;;;11.90;99.70;;;;;;5011665;28;20025;-76
2024/03/20 08:08:19;;;;;;;24.10;11.52;;;12.10;99.80;;;;;;5016789;28;20291;-76
2024/03/20 08:10:46;;;;;;;;;;;12.20;99.60;;;;;;5022557;28;20021;-76
2024/03/20 08:13:12;;;;;;;17.27;10.37;;;12.20;99.40;;;;;;5018139;28;19909;-76
2024/03/20 08:15:39;;;;;;;20.95;10.82;;;12.40;99.40;;;;;;5012747;28;20428;-76
2024/03/20 08:18:05;;;;;;;19.95;11.10;;;12.50;99.10;;;;;;5015090;28;20595;-76
2024/03/20 08:20:31;;;;;;;20.65;11.63;;;12.60;99.30;;;;;;5019079;28;20030;-76
2024/03/20 08:22:56;;;;;;;;;;;12.60;99.00;;;;;;5013971;28;20022;-75
2024/03/20 08:25:22;;;;;;;18.20;12.05;;;12.60;99.00;;;;;;5012200;28;19910;-76
2024/03/20 08:27:47;;;;;;;;;;;12.70;98.30;;;;;;5016538;28;20042;-76
2024/03/20 08:30:13;;;;;;;17.20;10.40;;;12.80;98.70;;;;;;5017087;28;19920;-76
2024/03/20 08:32:39;;;;;;;;;;;12.90;98.70;;;;;;5014119;28;20084;-75
2024/03/20 08:35:07;;;;;;;21.27;11.10;;;13.00;98.70;;;;;;5011330;28;19921;-76
2024/03/20 08:37:33;;;;;;;17.35;10.23;;;13.10;98.50;;;;;;5018714;28;20029;-76
2024/03/20 08:40:01;;;;;;;;;;;13.20;98.30;;;;;;5014730;28;20022;-76
2024/03/20 08:42:27;;;;;;;22.85;11.68;;;13.40;98.30;;;;;;5014576;28;19996;-76
2024/03/20 08:44:52;;;;;;;17.48;11.48;;;13.50;98.20;;;;;;5014750;28;20029;-76
2024/03/20 08:47:18;;;;;;;;;;;13.70;98.10;;;;;;5016990;28;20396;-76
2024/03/20 08:49:44;;;;;;;21.50;14.38;;;13.80;97.90;;;;;;5023182;28;19941;-76
2024/03/20 08:52:11;;;;;;;20.85;13.25;;;13.90;97.80;;;;;;5014687;28;20025;-75
2024/03/20 08:54:43;;;;;;;18.77;11.90;;;14.00;97.60;;;;;;5020001;28;20037;-75
2024/03/20 08:57:10;;;;;;;20.83;12.90;;;14.10;96.80;;;;;;5017717;28;20022;-75
2024/03/20 08:59:35;;;;;;;19.10;13.43;;;14.10;97.20;;;;;;5015526;28;20030;-75
2024/03/20 09:02:02;;;;;;;;;;;14.20;97.60;;;;;;5016246;28;20558;-75
2024/03/20 09:04:28;;;;;;;20.47;11.10;;;14.20;97.40;;;;;;5018370;28;19917;-75
2024/03/20 09:06:55;;;;;;;;;;;14.20;97.10;;;;;;5025439;28;20269;-75
2024/03/20 09:09:21;;;;;;;17.15;11.23;;;14.20;96.60;;;;;;5023081;28;20041;-75
2024/03/20 09:11:47;;;;;;;21.35;13.23;;;14.40;97.00;;;;;;5020876;28;20037;-75
2024/03/20 09:14:12;;;;;;;;;;;14.50;96.90;;;;;;5019002;28;20033;-75
2024/03/20 09:16:38;;;;;;;23.70;11.35;;;14.60;97.00;;;;;;5019384;28;20387;-75
2024/03/20 09:19:04;;;;;;;26.08;13.27;;;14.70;96.70;;;;;;5024080;28;20057;-75
2024/03/20 09:21:33;;;;;;;;;;;14.80;96.60;;;;;;5018354;28;20078;-75
2024/03/20 09:23:58;;;;;;;19.50;13.35;;;14.90;96.40;;;;;;5028387;28;19996;-75
2024/03/20 09:26:24;;;;;;;17.50;11.13;;;15.10;96.40;;;;;;5017573;28;20129;-75
2024/03/20 09:28:51;;;;;;;;;;;15.20;96.30;;;;;;5023140;28;20403;-75
2024/03/20 09:31:16;;;;;;;17.35;12.13;;;15.30;96.10;;;;;;5017144;28;19921;-75
2024/03/20 09:33:42;;;;;;;18.77;11.45;;;15.50;95.60;;;;;;5018277;28;20025;-75
2024/03/20 09:36:07;;;;;;;43.53;13.18;;;15.50;95.80;;;;;;5019100;28;20048;-75
2024/03/20 09:38:33;;;;;;;21.55;11.02;;;15.60;95.20;;;;;;5019085;28;20099;-75
2024/03/20 09:40:58;;;;;;;22.42;11.50;;;15.60;95.20;;;;;;5018060;28;20472;-76
2024/03/20 09:43:24;;;;;;;;;;;15.70;95.30;;;;;;5020594;28;20053;-75
2024/03/20 09:45:51;;;;;;;21.05;10.32;;;15.70;95.00;;;;;;5015205;28;19913;-75
2024/03/20 09:48:17;;;;;;;18.65;10.30;;;15.80;95.10;;;;;;5021570;28;20033;-74
2024/03/20 09:50:42;;;;;;;23.25;11.75;;;15.90;95.20;;;;;;5018416;28;20060;-75
2024/03/20 09:53:08;;;;;;;19.20;11.55;;;16.00;94.90;;;;;;5022166;28;20391;-74
2024/03/20 09:55:37;;;;;;;12.80;9.25;;;16.00;94.30;;;;;;5015149;28;20048;-74
2024/03/20 09:58:03;;;;;;;24.23;10.30;;;16.10;94.50;;;;;;5028917;28;20137;-75
2024/03/20 10:00:29;;;;;;;21.58;10.70;;;16.20;93.90;;;;;;5015572;28;20112;-74
2024/03/20 10:02:56;;;;;;;20.60;10.48;;;16.30;93.90;;;;;;5020350;28;20129;-74
2024/03/20 10:05:22;;;;;;;17.77;10.10;;;16.30;93.70;;;;;;5022127;28;20044;-75
2024/03/20 10:07:48;;;;;;;19.75;12.00;;;16.40;93.60;;;;;;5015935;28;20124;-75
2024/03/20 10:10:15;;;;;;;17.80;10.65;;;16.40;93.20;;;;;;5020524;28;20392;-75
2024/03/20 10:12:45;;;;;;;17.88;9.27;;;16.50;93.40;;;;;;5017393;28;20072;-74
2024/03/20 10:15:11;;;;;;;22.67;13.02;;;16.50;93.70;;;;;;5016316;28;20410;-74
2024/03/20 10:17:41;;;;;;;24.10;10.88;;;16.50;93.60;;;;;;5021519;28;20029;-75
2024/03/20 10:20:19;;;;;;;22.88;11.57;;;16.60;93.30;;;;;;5017324;28;21017;-74
2024/03/20 10:22:45;;;;;;;19.45;11.85;;;16.70;93.40;;;;;;5090267;23;20125;-74
2024/03/20 10:25:13;;;;;;;20.20;10.95;;;16.80;92.80;;;;;;5099973;28;20097;-75
2024/03/20 10:27:40;;;;;;;25.00;11.50;;;16.90;92.90;;;;;;5094663;27;20034;-75
2024/03/20 10:30:16;;;;;;;18.67;10.93;;;17.00;92.60;;;;;;5098170;28;20023;-78
2024/03/20 10:32:50;;;;;;;26.17;11.30;;;17.10;92.50;;;;;;5079849;28;20068;-75
2024/03/20 10:35:18;;;;;;;19.95;10.50;;;17.20;92.40;;;;;;5079199;28;20097;-75
2024/03/20 10:37:45;;;;;;;23.83;10.98;;;17.20;91.90;;;;;;5075745;28;20032;-74
2024/03/20 10:40:23;;;;;;;20.90;11.60;;;17.20;92.00;;;;;;5074322;28;20024;-75
2024/03/20 10:42:50;;;;;;;18.52;11.23;;;17.30;92.00;;;;;;5077940;28;20024;-75
2024/03/20 10:45:18;;;;;;;35.13;9.57;;;17.30;91.80;;;;;;5079657;28;20020;-75
2024/03/20 10:47:47;;;;;;;21.45;11.07;;;17.40;91.80;;;;;;5083646;28;20036;-75
2024/03/20 10:50:18;;;;;;;20.92;11.10;;;17.40;91.80;;;;;;5078076;28;20024;-75
2024/03/20 10:52:49;;;;;;;20.83;11.80;;;17.50;91.90;;;;;;5075574;28;20040;-75
2024/03/20 10:55:16;;;;;;;19.55;11.00;;;17.60;91.40;;;;;;5081907;28;20115;-75
2024/03/20 10:57:42;;;;;;;20.05;11.77;;;17.50;91.40;;;;;;5078241;28;20390;-74
2024/03/20 11:00:17;;;;;;;23.33;10.13;;;17.60;91.30;;;;;;5080004;28;20082;-74
2024/03/20 11:02:44;;;;;;;24.92;12.10;;;17.70;91.40;;;;;;5074781;28;20020;-74
2024/03/20 11:05:41;;;;;;;23.00;9.90;;;17.80;91.30;;;;;;5079725;28;21165;-74
2024/03/20 11:08:07;;;;;;;19.55;10.48;;;17.90;91.20;;;;;;5079731;28;20032;-71
2024/03/20 11:10:44;;;;;;;14.57;10.52;;;18.00;91.00;;;;;;5080850;28;20060;-72
2024/03/20 11:13:22;;;;;;;15.73;9.98;;;18.10;90.30;;;;;;5078550;28;20514;-71
2024/03/20 11:15:51;;;;;;;15.52;10.10;;;18.10;90.80;;;;;;5080041;28;20044;-72
2024/03/20 11:18:22;;;;;;;17.90;11.18;;;18.20;90.90;;;;;;5081845;28;20447;-71
2024/03/20 11:20:48;;;;;;;15.35;9.45;;;18.20;90.40;;;;;;5075600;28;20044;-72
2024/03/20 11:23:27;;;;;;;16.92;10.45;;;18.20;90.10;;;;;;5080879;28;20033;-71
2024/03/20 11:25:54;;;;;;;15.10;9.25;;;18.10;90.20;;;;;;5082803;28;20031;-71
2024/03/20 11:28:20;;;;;;;15.18;8.75;;;18.10;90.00;;;;;;5077366;28;20170;-72
2024/03/20 11:30:47;;;;;;;15.55;9.02;;;18.10;89.80;;;;;;5079409;28;20035;-71
2024/03/20 11:33:13;;;;;;;15.25;8.85;;;18.10;90.00;;;;;;5081808;28;20074;-72
2024/03/20 11:35:40;;;;;;;14.05;7.50;;;18.10;90.10;;;;;;5081335;28;20025;-70
2024/03/20 11:38:08;;;;;;;14.45;8.48;;;18.10;90.10;;;;;;5080172;28;20073;-72
2024/03/20 11:40:34;;;;;;;14.30;7.78;;;18.20;89.90;;;;;;5079950;28;20031;-72
2024/03/20 11:43:00;;;;;;;12.05;6.28;;;18.20;89.50;;;;;;5074929;28;20028;-72
2024/03/20 11:45:26;;;;;;;16.30;6.65;;;18.30;89.60;;;;;;5077425;28;20039;-72
2024/03/20 11:47:53;;;;;;;8.90;6.55;;;18.40;89.00;;;;;;5078573;28;20028;-72
2024/03/20 11:50:19;;;;;;;8.93;6.30;;;18.50;87.80;;;;;;5078872;28;20027;-72
2024/03/20 11:52:45;;;;;;;16.30;6.75;;;18.50;87.20;;;;;;5081062;28;20036;-72
2024/03/20 11:55:12;;;;;;;11.55;6.55;;;18.50;86.70;;;;;;5073403;28;20033;-73
2024/03/20 11:57:40;;;;;;;14.57;7.13;;;18.50;86.50;;;;;;5078971;28;20020;-71
2024/03/20 12:00:11;;;;;;;15.35;6.25;;;18.60;86.20;;;;;;5078766;28;21147;-72
2024/03/20 12:02:37;;;;;;;12.73;6.88;;;18.70;86.30;;;;;;5079370;28;20040;-72
2024/03/20 12:05:08;;;;;;;12.77;6.90;;;18.70;86.00;;;;;;5074275;28;20036;-70
2024/03/20 12:07:36;;;;;;;10.77;6.28;;;18.70;85.90;;;;;;5084208;28;20060;-71
2024/03/20 12:10:02;;;;;;;10.65;6.03;;;18.80;86.50;;;;;;5073896;28;20029;-71
2024/03/20 12:12:28;;;;;;;10.63;5.85;;;19.00;85.90;;;;;;5075519;28;20082;-70
2024/03/20 12:14:59;;;;;;;10.27;5.45;;;19.00;84.20;;;;;;5059279;28;20139;-71
2024/03/20 12:17:26;;;;;;;7.25;5.53;;;18.90;83.20;;;;;;5076305;28;20507;-71
2024/03/20 12:19:52;;;;;;;12.48;5.75;;;19.00;83.10;;;;;;5075132;28;20028;-71
2024/03/20 12:22:19;;;;;;;9.75;5.05;;;19.00;83.50;;;;;;5072038;28;20395;-70
2024/03/20 12:24:45;;;;;;;6.82;5.18;;;19.10;83.70;;;;;;5071611;28;20028;-71
2024/03/20 12:27:12;;;;;;;7.70;5.10;;;19.10;82.70;;;;;;5078492;28;20043;-71
2024/03/20 12:29:38;;;;;;;7.13;4.00;;;19.20;82.20;;;;;;5079872;28;20051;-71
2024/03/20 12:32:04;;;;;;;9.88;3.97;;;19.20;81.30;;;;;;5075597;28;20646;-71
2024/03/20 12:34:29;;;;;;;7.82;3.30;;;19.20;81.30;;;;;;5081219;28;20077;-71
2024/03/20 12:36:55;;;;;;;8.60;4.30;;;19.20;80.60;;;;;;5073380;28;20028;-70
2024/03/20 12:39:20;;;;;;;9.18;4.82;;;19.20;80.40;;;;;;5083733;28;20017;-70
2024/03/20 12:41:47;;;;;;;7.18;4.50;;;19.30;80.30;;;;;;5078728;28;20115;-70
2024/03/20 12:44:14;;;;;;;5.45;3.28;;;19.30;79.90;;;;;;5080500;28;20082;-70
2024/03/20 12:46:39;;;;;;;6.70;3.60;;;19.30;78.80;;;;;;5077250;28;20028;-70
2024/03/20 12:49:12;;;;;;;8.77;3.35;;;19.40;78.00;;;;;;5073248;28;20117;-71
2024/03/20 12:51:38;;;;;;;9.63;5.43;;;19.40;79.20;;;;;;5083828;28;20051;-71
2024/03/20 12:54:04;;;;;;;8.30;5.85;;;19.40;78.60;;;;;;5076146;28;20107;-71
2024/03/20 12:56:31;;;;;;;9.88;5.72;;;19.40;78.90;;;;;;5077542;28;20059;-70
2024/03/20 12:58:56;;;;;;;9.00;5.18;;;19.40;79.40;;;;;;5080723;28;20954;-70